sensor_id;sensor_type;location;lat;lon;timestamp;pressure;altitude;pressure_sealevel;temperature;humidity
74125;BME280;62475;52.192;5.396;2023-02-23T00:01:47;101265.88;;;8.25;100.00
74125;BME280;62475;52.192;5.396;2023-02-23T00:04:12;101264.50;;;8.27;100.00
74125;BME280;62475;52.192;5.396;2023-02-23T00:06:38;101259.78;;;8.18;100.00
74125;BME280;62475;52.192;5.396;2023-02-23T00:09:04;101264.72;;;8.21;100.00
74125;BME280;62475;52.192;5.396;2023-02-23T00:11:52;101264.19;;;8.24;100.00
74125;BME280;62475;52.192;5.396;2023-02-23T00:14:17;101265.25;;;8.18;100.00
74125;BME280;62475;52.192;5.396;2023-02-23T00:16:42;101264.00;;;8.35;100.00
74125;BME280;62475;52.192;5.396;2023-02-23T00:19:09;101260.41;;;8.25;100.00
74125;BME280;62475;52.192;5.396;2023-02-23T00:21:35;101256.56;;;8.31;100.00
74125;BME280;62475;52.192;5.396;2023-02-23T00:24:02;101256.78;;;8.19;100.00
74125;BME280;62475;52.192;5.396;2023-02-23T00:26:29;101260.63;;;8.18;100.00
74125;BME280;62475;52.192;5.396;2023-02-23T00:28:57;101256.50;;;8.21;100.00
74125;BME280;62475;52.192;5.396;2023-02-23T00:31:24;101260.91;;;8.22;100.00
74125;BME280;62475;52.192;5.396;2023-02-23T00:33:55;101260.06;;;8.16;100.00
74125;BME280;62475;52.192;5.396;2023-02-23T00:36:21;101250.47;;;8.14;100.00
74125;BME280;62475;52.192;5.396;2023-02-23T00:38:51;101259.75;;;8.07;100.00
74125;BME280;62475;52.192;5.396;2023-02-23T00:41:17;101253.75;;;8.11;100.00
74125;BME280;62475;52.192;5.396;2023-02-23T00:43:53;101252.88;;;8.05;100.00
74125;BME280;62475;52.192;5.396;2023-02-23T00:46:19;101254.28;;;8.07;100.00
74125;BME280;62475;52.192;5.396;2023-02-23T00:48:46;101249.31;;;8.04;100.00
74125;BME280;62475;52.192;5.396;2023-02-23T00:51:11;101252.03;;;7.94;100.00
74125;BME280;62475;52.192;5.396;2023-02-23T00:53:37;101256.16;;;7.97;100.00
74125;BME280;62475;52.192;5.396;2023-02-23T00:56:03;101256.91;;;7.87;100.00
74125;BME280;62475;52.192;5.396;2023-02-23T00:58:28;101254.47;;;7.91;100.00
74125;BME280;62475;52.192;5.396;2023-02-23T01:00:54;101249.53;;;7.88;100.00
74125;BME280;62475;52.192;5.396;2023-02-23T01:03:19;101256.34;;;7.85;100.00
74125;BME280;62475;52.192;5.396;2023-02-23T01:05:44;101255.28;;;7.91;100.00
74125;BME280;62475;52.192;5.396;2023-02-23T01:08:13;101249.53;;;7.88;100.00
74125;BME280;62475;52.192;5.396;2023-02-23T01:10:39;101251.72;;;7.86;100.00
74125;BME280;62475;52.192;5.396;2023-02-23T01:13:07;101252.50;;;7.81;100.00
74125;BME280;62475;52.192;5.396;2023-02-23T01:15:32;101255.75;;;7.78;100.00
74125;BME280;62475;52.192;5.396;2023-02-23T01:17:57;101252.50;;;7.81;100.00
74125;BME280;62475;52.192;5.396;2023-02-23T01:20:26;101248.94;;;7.76;100.00
74125;BME280;62475;52.192;5.396;2023-02-23T01:22:52;101258.47;;;7.73;100.00
74125;BME280;62475;52.192;5.396;2023-02-23T01:25:17;101258.53;;;7.83;100.00
74125;BME280;62475;52.192;5.396;2023-02-23T01:27:42;101258.00;;;7.81;100.00
74125;BME280;62475;52.192;5.396;2023-02-23T01:30:08;101260.72;;;7.81;100.00
74125;BME280;62475;52.192;5.396;2023-02-23T01:32:34;101260.19;;;7.84;100.00
74125;BME280;62475;52.192;5.396;2023-02-23T01:35:01;101256.88;;;7.82;100.00
74125;BME280;62475;52.192;5.396;2023-02-23T01:37:28;101258.00;;;7.86;100.00
74125;BME280;62475;52.192;5.396;2023-02-23T01:39:53;101259.91;;;7.86;100.00
74125;BME280;62475;52.192;5.396;2023-02-23T01:42:18;101258.00;;;7.81;100.00
74125;BME280;62475;52.192;5.396;2023-02-23T01:47:09;101259.88;;;7.81;100.00
74125;BME280;62475;52.192;5.396;2023-02-23T01:49:37;101254.16;;;7.87;100.00
74125;BME280;62475;52.192;5.396;2023-02-23T01:52:06;101259.06;;;7.80;100.00
74125;BME280;62475;52.192;5.396;2023-02-23T01:54:38;101254.16;;;7.82;100.00
74125;BME280;62475;52.192;5.396;2023-02-23T01:57:03;101252.25;;;7.83;100.00
74125;BME280;62475;52.192;5.396;2023-02-23T02:01:58;101252.03;;;7.99;100.00
74125;BME280;62475;52.192;5.396;2023-02-23T02:04:23;101257.50;;;7.99;100.00
74125;BME280;62475;52.192;5.396;2023-02-23T02:06:49;101263.81;;;8.00;100.00
74125;BME280;62475;52.192;5.396;2023-02-23T02:09:17;101266.81;;;7.98;100.00
74125;BME280;62475;52.192;5.396;2023-02-23T02:11:44;101260.78;;;7.96;100.00
74125;BME280;62475;52.192;5.396;2023-02-23T02:14:18;101261.88;;;7.90;100.00
74125;BME280;62475;52.192;5.396;2023-02-23T02:25:23;101262.94;;;7.89;100.00
74125;BME280;62475;52.192;5.396;2023-02-23T02:27:45;101263.28;;;8.08;100.00
74125;BME280;62475;52.192;5.396;2023-02-23T02:33:05;101260.81;;;8.06;100.00
74125;BME280;62475;52.192;5.396;2023-02-23T02:45:49;101264.09;;;7.98;100.00
74125;BME280;62475;52.192;5.396;2023-02-23T02:48:22;101261.06;;;7.95;100.00
74125;BME280;62475;52.192;5.396;2023-02-23T02:53:18;101260.78;;;7.96;100.00
74125;BME280;62475;52.192;5.396;2023-02-23T02:55:44;101258.06;;;7.96;100.00
74125;BME280;62475;52.192;5.396;2023-02-23T02:58:12;101259.13;;;7.90;100.00
74125;BME280;62475;52.192;5.396;2023-02-23T03:00:41;101257.22;;;7.96;100.00
74125;BME280;62475;52.192;5.396;2023-02-23T03:03:27;101259.06;;;7.85;100.00
74125;BME280;62475;52.192;5.396;2023-02-23T03:06:11;101257.44;;;7.84;100.00
74125;BME280;62475;52.192;5.396;2023-02-23T03:12:07;101261.06;;;7.95;100.00
74125;BME280;62475;52.192;5.396;2023-02-23T03:15:12;101259.66;;;7.92;100.00
74125;BME280;62475;52.192;5.396;2023-02-23T03:18:03;101255.34;;;8.06;100.00
74125;BME280;62475;52.192;5.396;2023-02-23T03:20:51;101257.75;;;7.88;100.00
74125;BME280;62475;52.192;5.396;2023-02-23T03:23:43;101264.34;;;7.92;100.00
74125;BME280;62475;52.192;5.396;2023-02-23T03:26:33;101266.78;;;7.93;100.00
74125;BME280;62475;52.192;5.396;2023-02-23T03:29:33;101264.94;;;8.09;100.00
74125;BME280;62475;52.192;5.396;2023-02-23T03:35:06;101264.34;;;7.97;100.00
74125;BME280;62475;52.192;5.396;2023-02-23T03:38:37;101261.72;;;8.22;100.00
74125;BME280;62475;52.192;5.396;2023-02-23T03:41:01;101270.72;;;8.13;100.00
74125;BME280;62475;52.192;5.396;2023-02-23T03:43:50;101269.63;;;8.19;100.00
74125;BME280;62475;52.192;5.396;2023-02-23T03:46:36;101274.31;;;8.23;100.00
74125;BME280;62475;52.192;5.396;2023-02-23T03:49:21;101281.69;;;8.18;100.00
74125;BME280;62475;52.192;5.396;2023-02-23T03:52:09;101273.81;;;8.31;100.00
74125;BME280;62475;52.192;5.396;2023-02-23T03:58:00;101284.94;;;8.10;100.00
74125;BME280;62475;52.192;5.396;2023-02-23T04:00:48;101276.72;;;8.10;100.00
74125;BME280;62475;52.192;5.396;2023-02-23T04:03:34;101288.50;;;8.15;100.00
74125;BME280;62475;52.192;5.396;2023-02-23T04:06:21;101284.97;;;8.20;100.00
74125;BME280;62475;52.192;5.396;2023-02-23T04:09:06;101288.06;;;8.33;100.00
74125;BME280;62475;52.192;5.396;2023-02-23T04:11:55;101285.31;;;8.28;100.00
74125;BME280;62475;52.192;5.396;2023-02-23T04:14:54;101287.81;;;8.40;100.00
74125;BME280;62475;52.192;5.396;2023-02-23T04:17:20;101289.75;;;8.44;100.00
74125;BME280;62475;52.192;5.396;2023-02-23T04:19:49;101286.94;;;8.29;100.00
74125;BME280;62475;52.192;5.396;2023-02-23T04:22:14;101291.34;;;8.30;100.00
74125;BME280;62475;52.192;5.396;2023-02-23T04:24:39;101289.41;;;8.31;100.00
74125;BME280;62475;52.192;5.396;2023-02-23T04:27:05;101297.59;;;8.26;100.00
74125;BME280;62475;52.192;5.396;2023-02-23T04:29:30;101294.53;;;8.22;100.00
74125;BME280;62475;52.192;5.396;2023-02-23T04:31:55;101302.56;;;8.29;100.00
74125;BME280;62475;52.192;5.396;2023-02-23T04:34:20;101298.63;;;8.15;100.00
74125;BME280;62475;52.192;5.396;2023-02-23T04:36:46;101299.41;;;8.05;100.00
74125;BME280;62475;52.192;5.396;2023-02-23T04:39:11;101300.19;;;8.00;100.00
74125;BME280;62475;52.192;5.396;2023-02-23T04:41:36;101306.44;;;7.96;100.00
74125;BME280;62475;52.192;5.396;2023-02-23T04:44:01;101309.16;;;7.91;100.00
74125;BME280;62475;52.192;5.396;2023-02-23T04:46:26;101308.84;;;7.82;100.00
74125;BME280;62475;52.192;5.396;2023-02-23T04:48:51;101313.75;;;7.80;100.00
74125;BME280;62475;52.192;5.396;2023-02-23T04:51:17;101315.13;;;7.78;100.00
74125;BME280;62475;52.192;5.396;2023-02-23T04:53:42;101319.16;;;7.70;100.00
74125;BME280;62475;52.192;5.396;2023-02-23T04:56:08;101317.00;;;7.72;100.00
74125;BME280;62475;52.192;5.396;2023-02-23T04:58:33;101311.84;;;7.81;100.00
74125;BME280;62475;52.192;5.396;2023-02-23T05:01:06;101320.94;;;7.91;100.00
74125;BME280;62475;52.192;5.396;2023-02-23T05:03:33;101320.94;;;7.91;100.00
74125;BME280;62475;52.192;5.396;2023-02-23T05:05:59;101320.94;;;7.91;100.00
74125;BME280;62475;52.192;5.396;2023-02-23T05:08:25;101325.88;;;7.94;100.00
74125;BME280;62475;52.192;5.396;2023-02-23T05:10:50;101322.06;;;7.95;100.00
74125;BME280;62475;52.192;5.396;2023-02-23T05:13:15;101324.72;;;7.85;100.00
74125;BME280;62475;52.192;5.396;2023-02-23T05:15:41;101326.34;;;7.81;100.00
74125;BME280;62475;52.192;5.396;2023-02-23T05:18:06;101324.69;;;7.80;100.00
74125;BME280;62475;52.192;5.396;2023-02-23T05:20:32;101325.53;;;7.81;100.00
74125;BME280;62475;52.192;5.396;2023-02-23T05:22:57;101330.69;;;7.77;100.00
74125;BME280;62475;52.192;5.396;2023-02-23T05:25:22;101326.31;;;7.76;100.00
74125;BME280;62475;52.192;5.396;2023-02-23T05:27:47;101333.19;;;7.84;100.00
74125;BME280;62475;52.192;5.396;2023-02-23T05:30:13;101333.41;;;7.72;100.00
74125;BME280;62475;52.192;5.396;2023-02-23T05:32:38;101333.19;;;7.84;100.00
74125;BME280;62475;52.192;5.396;2023-02-23T05:35:03;101339.75;;;7.83;100.00
74125;BME280;62475;52.192;5.396;2023-02-23T05:37:29;101341.66;;;7.82;100.00
74125;BME280;62475;52.192;5.396;2023-02-23T05:39:54;101335.03;;;7.73;100.00
74125;BME280;62475;52.192;5.396;2023-02-23T05:42:19;101334.75;;;7.75;100.00
74125;BME280;62475;52.192;5.396;2023-02-23T05:44:47;101340.28;;;7.80;100.00
74125;BME280;62475;52.192;5.396;2023-02-23T05:47:12;101339.97;;;7.71;100.00
74125;BME280;62475;52.192;5.396;2023-02-23T05:49:37;101333.94;;;7.69;100.00
74125;BME280;62475;52.192;5.396;2023-02-23T05:52:03;101339.72;;;7.78;100.00
74125;BME280;62475;52.192;5.396;2023-02-23T05:54:29;101332.88;;;7.80;100.00
74125;BME280;62475;52.192;5.396;2023-02-23T05:56:54;101334.06;;;7.89;100.00
74125;BME280;62475;52.192;5.396;2023-02-23T05:59:19;101334.72;;;7.70;100.00
74125;BME280;62475;52.192;5.396;2023-02-23T06:01:44;101332.84;;;7.75;100.00
74125;BME280;62475;52.192;5.396;2023-02-23T06:04:09;101336.09;;;7.67;100.00
74125;BME280;62475;52.192;5.396;2023-02-23T06:06:35;101337.72;;;7.68;100.00
74125;BME280;62475;52.192;5.396;2023-02-23T06:09:01;101337.72;;;7.68;100.00
74125;BME280;62475;52.192;5.396;2023-02-23T06:11:27;101342.91;;;7.65;100.00
74125;BME280;62475;52.192;5.396;2023-02-23T06:13:52;101344.25;;;7.62;100.00
74125;BME280;62475;52.192;5.396;2023-02-23T06:16:17;101350.91;;;7.71;100.00
74125;BME280;62475;52.192;5.396;2023-02-23T06:18:43;101347.38;;;7.76;100.00
74125;BME280;62475;52.192;5.396;2023-02-23T06:21:08;101344.66;;;7.81;100.00
74125;BME280;62475;52.192;5.396;2023-02-23T06:23:34;101345.97;;;7.73;100.00
74125;BME280;62475;52.192;5.396;2023-02-23T06:25:59;101351.00;;;7.86;100.00
74125;BME280;62475;52.192;5.396;2023-02-23T06:28:25;101353.19;;;7.89;100.00
74125;BME280;62475;52.192;5.396;2023-02-23T06:30:53;101350.69;;;7.83;100.00
74125;BME280;62475;52.192;5.396;2023-02-23T06:33:18;101355.09;;;7.89;100.00
74125;BME280;62475;52.192;5.396;2023-02-23T06:35:44;101369.03;;;7.87;100.00
74125;BME280;62475;52.192;5.396;2023-02-23T06:38:10;101364.47;;;7.98;100.00
74125;BME280;62475;52.192;5.396;2023-02-23T06:40:36;101364.75;;;8.01;100.00
74125;BME280;62475;52.192;5.396;2023-02-23T06:43:05;101368.00;;;7.93;100.00
74125;BME280;62475;52.192;5.396;2023-02-23T06:45:31;101374.50;;;7.87;100.00
74125;BME280;62475;52.192;5.396;2023-02-23T06:47:57;101371.59;;;7.99;100.00
74125;BME280;62475;52.192;5.396;2023-02-23T06:50:22;101375.69;;;8.01;100.00
74125;BME280;62475;52.192;5.396;2023-02-23T06:52:47;101386.78;;;8.22;100.00
74125;BME280;62475;52.192;5.396;2023-02-23T06:55:13;101385.13;;;8.21;100.00
74125;BME280;62475;52.192;5.396;2023-02-23T06:57:39;101382.72;;;8.29;100.00
74125;BME280;62475;52.192;5.396;2023-02-23T07:00:05;101383.56;;;8.30;100.00
74125;BME280;62475;52.192;5.396;2023-02-23T07:02:31;101386.06;;;8.36;100.00
74125;BME280;62475;52.192;5.396;2023-02-23T07:04:56;101386.78;;;8.22;100.00
74125;BME280;62475;52.192;5.396;2023-02-23T07:07:22;101386.03;;;7.94;100.00
74125;BME280;62475;52.192;5.396;2023-02-23T07:09:47;101389.91;;;7.98;100.00
74125;BME280;62475;52.192;5.396;2023-02-23T07:12:13;101403.34;;;8.05;100.00
74125;BME280;62475;52.192;5.396;2023-02-23T07:14:38;101394.84;;;8.01;100.00
74125;BME280;62475;52.192;5.396;2023-02-23T07:17:03;101408.59;;;8.12;100.00
74125;BME280;62475;52.192;5.396;2023-02-23T07:19:29;101414.84;;;8.02;100.00
74125;BME280;62475;52.192;5.396;2023-02-23T07:21:56;101418.72;;;8.11;100.00
74125;BME280;62475;52.192;5.396;2023-02-23T07:24:22;101422.44;;;7.95;100.00
74125;BME280;62475;52.192;5.396;2023-02-23T07:26:47;101433.56;;;7.83;100.00
74125;BME280;62475;52.192;5.396;2023-02-23T07:29:13;101430.06;;;7.93;100.00
74125;BME280;62475;52.192;5.396;2023-02-23T07:31:39;101432.38;;;8.06;100.00
74125;BME280;62475;52.192;5.396;2023-02-23T07:34:04;101442.72;;;7.99;100.00
74125;BME280;62475;52.192;5.396;2023-02-23T07:36:29;101434.56;;;8.04;100.00
74125;BME280;62475;52.192;5.396;2023-02-23T07:38:55;101432.97;;;8.13;100.00
74125;BME280;62475;52.192;5.396;2023-02-23T07:41:21;101432.72;;;8.15;100.00
74125;BME280;62475;52.192;5.396;2023-02-23T07:43:46;101438.63;;;8.01;100.00
74125;BME280;62475;52.192;5.396;2023-02-23T07:46:12;101441.66;;;8.05;100.00
74125;BME280;62475;52.192;5.396;2023-02-23T07:48:39;101442.16;;;7.97;100.00
74125;BME280;62475;52.192;5.396;2023-02-23T07:51:13;101447.84;;;7.90;100.00
74125;BME280;62475;52.192;5.396;2023-02-23T07:53:39;101455.22;;;7.90;100.00
74125;BME280;62475;52.192;5.396;2023-02-23T07:56:05;101453.81;;;7.87;100.00
74125;BME280;62475;52.192;5.396;2023-02-23T07:58:30;101467.00;;;7.90;100.00
74125;BME280;62475;52.192;5.396;2023-02-23T08:00:57;101454.44;;;7.94;100.00
74125;BME280;62475;52.192;5.396;2023-02-23T08:03:22;101458.31;;;7.98;100.00
74125;BME280;62475;52.192;5.396;2023-02-23T08:05:47;101456.63;;;7.97;100.00
74125;BME280;62475;52.192;5.396;2023-02-23T08:08:13;101458.84;;;7.95;100.00
74125;BME280;62475;52.192;5.396;2023-02-23T08:10:38;101458.84;;;7.95;100.00
74125;BME280;62475;52.192;5.396;2023-02-23T08:13:03;101461.59;;;8.00;100.00
74125;BME280;62475;52.192;5.396;2023-02-23T08:15:29;101460.81;;;8.05;100.00
74125;BME280;62475;52.192;5.396;2023-02-23T08:17:55;101463.53;;;8.05;100.00
74125;BME280;62475;52.192;5.396;2023-02-23T08:20:20;101463.53;;;8.05;100.00
74125;BME280;62475;52.192;5.396;2023-02-23T08:22:46;101461.69;;;8.11;100.00
74125;BME280;62475;52.192;5.396;2023-02-23T08:25:11;101466.03;;;8.12;100.00
74125;BME280;62475;52.192;5.396;2023-02-23T08:27:37;101469.25;;;7.98;100.00
74125;BME280;62475;52.192;5.396;2023-02-23T08:30:02;101472.84;;;8.04;100.00
74125;BME280;62475;52.192;5.396;2023-02-23T08:32:31;101474.75;;;8.03;100.00
74125;BME280;62475;52.192;5.396;2023-02-23T08:34:58;101485.22;;;8.17;100.00
74125;BME280;62475;52.192;5.396;2023-02-23T08:37:25;101480.59;;;8.17;100.00
74125;BME280;62475;52.192;5.396;2023-02-23T08:39:50;101493.75;;;8.20;100.00
74125;BME280;62475;52.192;5.396;2023-02-23T08:42:15;101483.97;;;8.24;100.00
74125;BME280;62475;52.192;5.396;2023-02-23T08:44:42;101485.81;;;8.19;100.00
74125;BME280;62475;52.192;5.396;2023-02-23T08:47:10;101495.41;;;8.21;100.00
74125;BME280;62475;52.192;5.396;2023-02-23T08:49:35;101499.78;;;8.22;100.00
74125;BME280;62475;52.192;5.396;2023-02-23T08:52:00;101504.78;;;8.25;100.00
74125;BME280;62475;52.192;5.396;2023-02-23T08:54:25;101498.72;;;8.23;100.00
74125;BME280;62475;52.192;5.396;2023-02-23T08:56:53;101500.69;;;8.28;100.00
74125;BME280;62475;52.192;5.396;2023-02-23T08:59:19;101498.41;;;8.20;100.00
74125;BME280;62475;52.192;5.396;2023-02-23T09:01:44;101503.13;;;8.24;100.00
74125;BME280;62475;52.192;5.396;2023-02-23T09:04:09;101501.78;;;8.27;100.00
74125;BME280;62475;52.192;5.396;2023-02-23T09:06:35;101507.28;;;8.32;100.00
74125;BME280;62475;52.192;5.396;2023-02-23T09:09:00;101509.25;;;8.41;100.00
74125;BME280;62475;52.192;5.396;2023-02-23T09:11:25;101506.50;;;8.36;100.00
74125;BME280;62475;52.192;5.396;2023-02-23T09:13:51;101518.78;;;8.29;100.00
74125;BME280;62475;52.192;5.396;2023-02-23T09:16:16;101517.72;;;8.35;100.00
74125;BME280;62475;52.192;5.396;2023-02-23T09:18:42;101520.16;;;8.31;100.00
74125;BME280;62475;52.192;5.396;2023-02-23T09:21:07;101527.91;;;8.44;100.00
74125;BME280;62475;52.192;5.396;2023-02-23T09:23:34;101515.50;;;8.32;100.00
74125;BME280;62475;52.192;5.396;2023-02-23T09:26:06;101521.50;;;8.29;100.00
74125;BME280;62475;52.192;5.396;2023-02-23T09:28:33;101528.06;;;8.28;100.00
74125;BME280;62475;52.192;5.396;2023-02-23T09:31:09;101526.69;;;8.25;100.00
74125;BME280;62475;52.192;5.396;2023-02-23T09:33:35;101534.06;;;8.25;100.00
74125;BME280;62475;52.192;5.396;2023-02-23T09:36:04;101533.00;;;8.31;100.00
74125;BME280;62475;52.192;5.396;2023-02-23T09:38:30;101537.38;;;8.27;100.00
74125;BME280;62475;52.192;5.396;2023-02-23T09:40:56;101536.19;;;8.23;100.00
74125;BME280;62475;52.192;5.396;2023-02-23T09:50:41;101536.63;;;8.41;100.00
74125;BME280;62475;52.192;5.396;2023-02-23T09:53:19;101544.66;;;8.48;100.00
74125;BME280;62475;52.192;5.396;2023-02-23T09:55:45;101542.03;;;8.31;100.00
74125;BME280;62475;52.192;5.396;2023-02-23T09:58:16;101535.88;;;8.46;100.00
74125;BME280;62475;52.192;5.396;2023-02-23T10:00:44;101540.28;;;8.52;100.00
74125;BME280;62475;52.192;5.396;2023-02-23T10:03:29;101542.44;;;8.50;100.00
74125;BME280;62475;52.192;5.396;2023-02-23T10:05:58;101541.69;;;8.54;100.00
74125;BME280;62475;52.192;5.396;2023-02-23T10:11:06;101545.97;;;8.45;100.00
74125;BME280;62475;52.192;5.396;2023-02-23T10:21:12;101550.13;;;8.48;100.00
74125;BME280;62475;52.192;5.396;2023-02-23T10:23:45;101548.03;;;8.60;100.00
74125;BME280;62475;52.192;5.396;2023-02-23T10:26:14;101547.75;;;8.61;100.00
74125;BME280;62475;52.192;5.396;2023-02-23T10:28:41;101556.69;;;8.52;100.00
74125;BME280;62475;52.192;5.396;2023-02-23T10:31:18;101551.78;;;8.54;100.00
74125;BME280;62475;52.192;5.396;2023-02-23T10:33:47;101563.03;;;8.57;100.00
74125;BME280;62475;52.192;5.396;2023-02-23T10:36:16;101557.88;;;8.61;100.00
74125;BME280;62475;52.192;5.396;2023-02-23T10:38:43;101559.75;;;8.55;100.00
74125;BME280;62475;52.192;5.396;2023-02-23T10:41:09;101567.25;;;8.70;100.00
74125;BME280;62475;52.192;5.396;2023-02-23T10:43:35;101572.72;;;8.70;100.00
74125;BME280;62475;52.192;5.396;2023-02-23T10:46:00;101567.47;;;8.63;100.00
74125;BME280;62475;52.192;5.396;2023-02-23T10:48:27;101568.00;;;8.60;100.00
74125;BME280;62475;52.192;5.396;2023-02-23T10:50:56;101569.38;;;8.63;100.00
74125;BME280;62475;52.192;5.396;2023-02-23T10:53:30;101573.50;;;8.65;100.00
74125;BME280;62475;52.192;5.396;2023-02-23T10:56:09;101577.91;;;8.66;100.00
74125;BME280;62475;52.192;5.396;2023-02-23T10:58:40;101573.28;;;8.72;100.00
74125;BME280;62475;52.192;5.396;2023-02-23T11:01:07;101568.84;;;8.66;100.00
74125;BME280;62475;52.192;5.396;2023-02-23T11:03:39;101571.59;;;8.66;100.00
74125;BME280;62475;52.192;5.396;2023-02-23T11:06:06;101577.63;;;8.68;100.00
74125;BME280;62475;52.192;5.396;2023-02-23T11:08:50;101576.22;;;8.65;100.00
74125;BME280;62475;52.192;5.396;2023-02-23T11:16:13;101573.19;;;8.62;100.00
74125;BME280;62475;52.192;5.396;2023-02-23T11:18:46;101566.69;;;8.68;100.00
74125;BME280;62475;52.192;5.396;2023-02-23T11:21:17;101570.81;;;8.70;100.00
74125;BME280;62475;52.192;5.396;2023-02-23T11:23:45;101581.81;;;8.75;100.00
74125;BME280;62475;52.192;5.396;2023-02-23T11:26:29;101573.03;;;8.73;100.00
74125;BME280;62475;52.192;5.396;2023-02-23T11:28:56;101574.47;;;8.86;100.00
74125;BME280;62475;52.192;5.396;2023-02-23T11:31:27;101574.38;;;8.76;100.00
74125;BME280;62475;52.192;5.396;2023-02-23T11:33:53;101573.28;;;8.72;100.00
74125;BME280;62475;52.192;5.396;2023-02-23T11:36:32;101582.91;;;8.79;100.00
74125;BME280;62475;52.192;5.396;2023-02-23T11:39:02;101578.78;;;8.72;100.00
74125;BME280;62475;52.192;5.396;2023-02-23T11:41:28;101581.19;;;8.63;100.00
74125;BME280;62475;52.192;5.396;2023-02-23T11:43:57;101585.31;;;8.71;100.00
74125;BME280;62475;52.192;5.396;2023-02-23T11:46:23;101574.09;;;8.72;100.00
74125;BME280;62475;52.192;5.396;2023-02-23T11:48:50;101575.47;;;8.70;100.00
74125;BME280;62475;52.192;5.396;2023-02-23T11:51:25;101578.44;;;8.63;100.00
74125;BME280;62475;52.192;5.396;2023-02-23T11:53:50;101572.44;;;8.66;100.00
74125;BME280;62475;52.192;5.396;2023-02-23T11:56:19;101569.78;;;8.81;100.00
74125;BME280;62475;52.192;5.396;2023-02-23T11:58:47;101582.88;;;8.74;100.00
74125;BME280;62475;52.192;5.396;2023-02-23T12:01:17;101579.56;;;8.72;100.00
74125;BME280;62475;52.192;5.396;2023-02-23T12:03:46;101579.53;;;8.67;100.00
74125;BME280;62475;52.192;5.396;2023-02-23T12:06:26;101588.00;;;8.61;100.00
74125;BME280;62475;52.192;5.396;2023-02-23T12:08:56;101585.03;;;8.67;100.00
74125;BME280;62475;52.192;5.396;2023-02-23T12:11:26;101586.88;;;8.62;100.00
74125;BME280;62475;52.192;5.396;2023-02-23T12:13:56;101584.28;;;8.77;100.00
74125;BME280;62475;52.192;5.396;2023-02-23T12:16:27;101585.94;;;8.83;100.00
74125;BME280;62475;52.192;5.396;2023-02-23T12:19:02;101584.03;;;8.83;100.00
74125;BME280;62475;52.192;5.396;2023-02-23T12:21:30;101570.69;;;8.97;100.00
74125;BME280;62475;52.192;5.396;2023-02-23T12:26:33;101572.13;;;9.09;100.00
74125;BME280;62475;52.192;5.396;2023-02-23T12:29:04;101569.16;;;9.16;100.00
74125;BME280;62475;52.192;5.396;2023-02-23T12:31:37;101573.81;;;9.15;100.00
74125;BME280;62475;52.192;5.396;2023-02-23T12:34:10;101572.69;;;9.11;100.00
74125;BME280;62475;52.192;5.396;2023-02-23T12:36:38;101562.56;;;9.12;100.00
74125;BME280;62475;52.192;5.396;2023-02-23T12:39:07;101569.69;;;9.13;100.00
74125;BME280;62475;52.192;5.396;2023-02-23T12:41:51;101566.63;;;9.04;100.00
74125;BME280;62475;52.192;5.396;2023-02-23T12:46:47;101563.66;;;9.16;100.00
74125;BME280;62475;52.192;5.396;2023-02-23T12:51:46;101580.13;;;9.16;100.00
74125;BME280;62475;52.192;5.396;2023-02-23T12:54:16;101575.47;;;9.16;100.00
74125;BME280;62475;52.192;5.396;2023-02-23T13:07:33;101581.09;;;8.95;100.00
74125;BME280;62475;52.192;5.396;2023-02-23T13:17:39;101562.34;;;9.29;100.00
74125;BME280;62475;52.192;5.396;2023-02-23T13:20:14;101560.44;;;9.29;100.00
74125;BME280;62475;52.192;5.396;2023-02-23T13:22:43;101557.94;;;9.23;100.00
74125;BME280;62475;52.192;5.396;2023-02-23T13:27:48;101562.34;;;9.29;100.00
74125;BME280;62475;52.192;5.396;2023-02-23T13:30:15;101563.19;;;9.29;100.00
74125;BME280;62475;52.192;5.396;2023-02-23T13:32:41;101556.56;;;9.20;100.00
74125;BME280;62475;52.192;5.396;2023-02-23T13:35:09;101558.75;;;9.23;100.00
74125;BME280;62475;52.192;5.396;2023-02-23T13:37:42;101548.63;;;9.24;100.00
74125;BME280;62475;52.192;5.396;2023-02-23T13:40:17;101559.88;;;9.22;100.00
74125;BME280;62475;52.192;5.396;2023-02-23T13:42:59;101560.66;;;9.17;100.00
74125;BME280;62475;52.192;5.396;2023-02-23T13:45:37;101562.03;;;9.15;100.00
74125;BME280;62475;52.192;5.396;2023-02-23T13:48:14;101570.56;;;9.24;100.00
74125;BME280;62475;52.192;5.396;2023-02-23T13:50:46;101573.56;;;9.17;100.00
74125;BME280;62475;52.192;5.396;2023-02-23T13:55:53;101569.00;;;8.86;100.00
74125;BME280;62475;52.192;5.396;2023-02-23T13:58:26;101576.13;;;8.87;100.00
74125;BME280;62475;52.192;5.396;2023-02-23T14:01:14;101572.84;;;8.90;100.00
74125;BME280;62475;52.192;5.396;2023-02-23T14:03:54;101567.44;;;9.00;100.00
74125;BME280;62475;52.192;5.396;2023-02-23T14:06:21;101562.88;;;9.15;100.00
74125;BME280;62475;52.192;5.396;2023-02-23T14:08:58;101572.19;;;9.25;100.00
74125;BME280;62475;52.192;5.396;2023-02-23T14:11:36;101567.38;;;9.42;100.00
74125;BME280;62475;52.192;5.396;2023-02-23T14:14:02;101572.78;;;9.32;100.00
74125;BME280;62475;52.192;5.396;2023-02-23T14:16:28;101566.50;;;9.31;100.00
74125;BME280;62475;52.192;5.396;2023-02-23T14:21:24;101579.13;;;9.37;100.00
74125;BME280;62475;52.192;5.396;2023-02-23T14:26:36;101579.38;;;9.36;100.00
74125;BME280;62475;52.192;5.396;2023-02-23T14:31:35;101582.56;;;9.17;100.00
74125;BME280;62475;52.192;5.396;2023-02-23T14:34:03;101579.53;;;9.14;100.00
74125;BME280;62475;52.192;5.396;2023-02-23T14:36:32;101571.03;;;9.10;100.00
74125;BME280;62475;52.192;5.396;2023-02-23T14:38:59;101577.34;;;9.11;100.00
74125;BME280;62475;52.192;5.396;2023-02-23T14:43:54;101581.78;;;9.17;100.00